South Woodstock, VT (05071)

8:04 PM EST on February 27, 2015 (GMT -0500)
Quechee Lakes Sec 1 | Change Station
CLOSE
Current Station
Personal Weather Station
Location: Quechee, VT
Elevation: 1180 ft
Nearby Weather Stations

Elev 1180 ft 43.65 °N, 72.46 °W | Updated 13 seconds ago

Clear
Clear
10.8 °F
Feels Like 11 °F
N
0.0
Wind Variable Wind from WSW
Gusts 0.0 mph

Today
High -- | Low -- °F
--% Chance of Precip.
Yesterday
High -- | Low -- °F
Precip. -- in
6:30 AM 5:36 PM
Waxing Gibbous, 73% visible
Pressure 30.50 in
Visibility 10.0 miles
Clouds Clear
Windchill 11 °F
Dew Point -6 °F
Humidity 47%
Rainfall 0.02 in
Snow Depth Not available.
UV 0 out of 12
Pollen .30 out of 12
Air Quality Not available.
Flu Activity Not available.
METAR KLEB 280053Z 00000KT 10SM CLR M17/M22 A3042 RMK AO2 SLP326 T11671217

More Conditions Fewer Conditions

Pressure 30.50 in
Visibility 10.0 miles
Clouds Clear
Windchill 11 °F
Dew Point -6 °F
Humidity 47%
Rainfall 0.02 in
Snow Depth Not available.
UV 0 out of 12
Pollen .30 out of 12
Air Quality Not available.
Flu Activity Not available.
METAR KLEB 280053Z 00000KT 10SM CLR M17/M22 A3042 RMK AO2 SLP326 T11671217

More Conditions Fewer Conditions

10-Day Weather Forecast

Almanac

Astronomy

Feb. 27, 2015 Rise Set
Actual Time
Civil Twilight
Nautical Twilight
Astronomical Twilight
Moon
Length of Visible Light
Length of Day
Tomorrow will be .
, % of the Moon is Illuminated

Today's Extremes

State Highs State Lows

Community

WunderPhotos

Upload Photos

1,800,911 photos uploaded!

WunderBlogs® & News

Nearby

Air Quality

  Air Quality AQ Index Pollutant
Not available.

Snow Depth

Station Depth Elevation

Earthquake Activity

City Distance Mag. Time & Date
Minimum magnitude displayed is 2.5.

Coastal Water Temperatures

Place Temperature

Nearby Weather Stations